sensor_id;sensor_type;location;lat;lon;timestamp;temperature;humidity
20380;DHT22;10349;48.666;8.948;2024-03-23T00:52:42;6.50;99.90
20380;DHT22;10349;48.666;8.948;2024-03-23T00:55:08;6.50;99.90
20380;DHT22;10349;48.666;8.948;2024-03-23T00:57:33;6.50;99.90
20380;DHT22;10349;48.666;8.948;2024-03-23T00:59:59;6.50;99.90
20380;DHT22;10349;48.666;8.948;2024-03-23T01:02:24;6.50;99.90
20380;DHT22;10349;48.666;8.948;2024-03-23T01:04:50;6.50;99.90
20380;DHT22;10349;48.666;8.948;2024-03-23T01:07:16;6.50;99.90
20380;DHT22;10349;48.666;8.948;2024-03-23T01:09:41;6.60;99.90
20380;DHT22;10349;48.666;8.948;2024-03-23T01:12:07;6.60;99.90
20380;DHT22;10349;48.666;8.948;2024-03-23T01:14:32;6.50;99.90
20380;DHT22;10349;48.666;8.948;2024-03-23T01:16:58;6.50;99.90
20380;DHT22;10349;48.666;8.948;2024-03-23T01:19:23;6.50;99.90
20380;DHT22;10349;48.666;8.948;2024-03-23T01:21:49;6.50;99.90
20380;DHT22;10349;48.666;8.948;2024-03-23T01:24:15;6.60;99.90
20380;DHT22;10349;48.666;8.948;2024-03-23T01:26:41;6.70;99.90
20380;DHT22;10349;48.666;8.948;2024-03-23T01:29:06;6.90;99.90
20380;DHT22;10349;48.666;8.948;2024-03-23T01:31:32;7.00;99.90
20380;DHT22;10349;48.666;8.948;2024-03-23T01:33:58;7.10;99.90
20380;DHT22;10349;48.666;8.948;2024-03-23T01:36:24;7.20;99.90
20380;DHT22;10349;48.666;8.948;2024-03-23T01:38:50;7.20;99.90
20380;DHT22;10349;48.666;8.948;2024-03-23T01:41:17;7.30;99.90
20380;DHT22;10349;48.666;8.948;2024-03-23T01:43:43;7.20;99.90
20380;DHT22;10349;48.666;8.948;2024-03-23T01:46:08;7.30;99.90
20380;DHT22;10349;48.666;8.948;2024-03-23T01:48:34;7.30;99.90
20380;DHT22;10349;48.666;8.948;2024-03-23T01:51:00;7.30;99.90
20380;DHT22;10349;48.666;8.948;2024-03-23T01:53:26;7.40;99.90
20380;DHT22;10349;48.666;8.948;2024-03-23T01:55:51;7.40;99.90
20380;DHT22;10349;48.666;8.948;2024-03-23T01:58:17;7.40;99.90
20380;DHT22;10349;48.666;8.948;2024-03-23T02:00:42;7.40;99.90
20380;DHT22;10349;48.666;8.948;2024-03-23T02:03:27;7.50;99.90
20380;DHT22;10349;48.666;8.948;2024-03-23T02:05:54;7.60;99.90
20380;DHT22;10349;48.666;8.948;2024-03-23T02:08:21;7.70;99.90
20380;DHT22;10349;48.666;8.948;2024-03-23T02:10:50;7.80;99.90
20380;DHT22;10349;48.666;8.948;2024-03-23T02:13:17;7.90;99.90
20380;DHT22;10349;48.666;8.948;2024-03-23T02:15:42;8.00;99.90
20380;DHT22;10349;48.666;8.948;2024-03-23T02:18:08;8.00;99.90
20380;DHT22;10349;48.666;8.948;2024-03-23T02:20:35;8.10;99.90
20380;DHT22;10349;48.666;8.948;2024-03-23T02:23:01;8.10;99.90
20380;DHT22;10349;48.666;8.948;2024-03-23T02:25:26;8.20;99.90
20380;DHT22;10349;48.666;8.948;2024-03-23T02:27:52;8.30;99.90
20380;DHT22;10349;48.666;8.948;2024-03-23T02:30:20;8.30;99.90
20380;DHT22;10349;48.666;8.948;2024-03-23T02:32:45;8.40;99.90
20380;DHT22;10349;48.666;8.948;2024-03-23T02:35:11;8.40;99.90
20380;DHT22;10349;48.666;8.948;2024-03-23T02:37:37;8.50;99.90
20380;DHT22;10349;48.666;8.948;2024-03-23T02:40:03;8.50;99.90
20380;DHT22;10349;48.666;8.948;2024-03-23T02:42:28;8.50;99.90
20380;DHT22;10349;48.666;8.948;2024-03-23T02:44:54;8.50;99.90
20380;DHT22;10349;48.666;8.948;2024-03-23T02:47:20;8.50;99.90
20380;DHT22;10349;48.666;8.948;2024-03-23T02:49:45;8.60;99.90
20380;DHT22;10349;48.666;8.948;2024-03-23T02:52:11;8.40;99.90
20380;DHT22;10349;48.666;8.948;2024-03-23T02:54:37;8.40;99.90
20380;DHT22;10349;48.666;8.948;2024-03-23T02:57:02;8.40;99.90
20380;DHT22;10349;48.666;8.948;2024-03-23T02:59:28;8.30;99.90
20380;DHT22;10349;48.666;8.948;2024-03-23T03:01:54;8.30;99.90
20380;DHT22;10349;48.666;8.948;2024-03-23T03:04:19;8.30;99.90
20380;DHT22;10349;48.666;8.948;2024-03-23T03:06:47;8.20;99.90
20380;DHT22;10349;48.666;8.948;2024-03-23T03:09:12;8.20;99.90
20380;DHT22;10349;48.666;8.948;2024-03-23T03:11:38;8.00;99.90
20380;DHT22;10349;48.666;8.948;2024-03-23T03:14:04;8.00;99.90
20380;DHT22;10349;48.666;8.948;2024-03-23T03:16:29;7.90;99.90
20380;DHT22;10349;48.666;8.948;2024-03-23T03:18:55;7.90;99.90
20380;DHT22;10349;48.666;8.948;2024-03-23T03:21:21;7.80;99.90
20380;DHT22;10349;48.666;8.948;2024-03-23T03:23:47;7.70;99.90
20380;DHT22;10349;48.666;8.948;2024-03-23T03:26:18;7.70;99.90
20380;DHT22;10349;48.666;8.948;2024-03-23T03:28:44;7.60;99.90
20380;DHT22;10349;48.666;8.948;2024-03-23T03:31:17;7.60;99.90
20380;DHT22;10349;48.666;8.948;2024-03-23T03:33:43;7.50;99.90
20380;DHT22;10349;48.666;8.948;2024-03-23T03:36:10;7.50;99.90
20380;DHT22;10349;48.666;8.948;2024-03-23T03:38:35;7.40;99.90
20380;DHT22;10349;48.666;8.948;2024-03-23T03:41:02;7.40;99.90
20380;DHT22;10349;48.666;8.948;2024-03-23T03:43:28;7.40;99.90
20380;DHT22;10349;48.666;8.948;2024-03-23T03:45:59;7.40;99.90
20380;DHT22;10349;48.666;8.948;2024-03-23T03:48:25;7.40;99.90
20380;DHT22;10349;48.666;8.948;2024-03-23T03:50:52;7.30;99.90
20380;DHT22;10349;48.666;8.948;2024-03-23T03:53:18;7.30;99.90
20380;DHT22;10349;48.666;8.948;2024-03-23T03:55:44;7.30;99.90
20380;DHT22;10349;48.666;8.948;2024-03-23T03:58:09;7.30;99.90
20380;DHT22;10349;48.666;8.948;2024-03-23T04:00:35;7.20;99.90
20380;DHT22;10349;48.666;8.948;2024-03-23T04:03:01;7.20;99.90
20380;DHT22;10349;48.666;8.948;2024-03-23T04:05:27;7.10;99.90
20380;DHT22;10349;48.666;8.948;2024-03-23T04:07:52;7.10;99.90
20380;DHT22;10349;48.666;8.948;2024-03-23T04:10:19;7.10;99.90
20380;DHT22;10349;48.666;8.948;2024-03-23T04:12:44;7.00;99.90
20380;DHT22;10349;48.666;8.948;2024-03-23T04:15:10;7.00;99.90
20380;DHT22;10349;48.666;8.948;2024-03-23T04:17:36;7.00;99.90
20380;DHT22;10349;48.666;8.948;2024-03-23T04:20:03;7.00;99.90
20380;DHT22;10349;48.666;8.948;2024-03-23T04:22:31;6.90;99.90
20380;DHT22;10349;48.666;8.948;2024-03-23T04:24:57;6.90;99.90
20380;DHT22;10349;48.666;8.948;2024-03-23T04:27:23;6.90;99.90
20380;DHT22;10349;48.666;8.948;2024-03-23T04:29:49;6.90;99.90
20380;DHT22;10349;48.666;8.948;2024-03-23T04:32:15;7.00;99.90
20380;DHT22;10349;48.666;8.948;2024-03-23T04:34:41;7.20;99.90
20380;DHT22;10349;48.666;8.948;2024-03-23T04:37:07;7.40;99.90
20380;DHT22;10349;48.666;8.948;2024-03-23T04:39:33;7.50;99.90
20380;DHT22;10349;48.666;8.948;2024-03-23T04:41:58;7.60;99.90
20380;DHT22;10349;48.666;8.948;2024-03-23T04:44:24;7.70;99.90
20380;DHT22;10349;48.666;8.948;2024-03-23T04:46:50;7.70;99.90
20380;DHT22;10349;48.666;8.948;2024-03-23T04:49:16;7.80;99.90
20380;DHT22;10349;48.666;8.948;2024-03-23T04:51:41;7.90;99.90
20380;DHT22;10349;48.666;8.948;2024-03-23T04:54:11;8.00;99.90
20380;DHT22;10349;48.666;8.948;2024-03-23T04:56:37;8.30;99.90
20380;DHT22;10349;48.666;8.948;2024-03-23T04:59:03;8.50;99.90
20380;DHT22;10349;48.666;8.948;2024-03-23T05:01:31;8.60;99.90
20380;DHT22;10349;48.666;8.948;2024-03-23T05:03:57;8.60;99.90
20380;DHT22;10349;48.666;8.948;2024-03-23T05:06:23;8.60;99.90
20380;DHT22;10349;48.666;8.948;2024-03-23T05:08:49;8.60;99.90
20380;DHT22;10349;48.666;8.948;2024-03-23T05:11:15;8.60;99.90
20380;DHT22;10349;48.666;8.948;2024-03-23T05:13:41;8.60;99.90
20380;DHT22;10349;48.666;8.948;2024-03-23T05:16:07;8.60;99.90
20380;DHT22;10349;48.666;8.948;2024-03-23T05:18:34;8.60;99.90
20380;DHT22;10349;48.666;8.948;2024-03-23T05:21:00;8.60;99.90
20380;DHT22;10349;48.666;8.948;2024-03-23T05:23:26;8.60;99.90
20380;DHT22;10349;48.666;8.948;2024-03-23T05:25:53;8.50;99.90
20380;DHT22;10349;48.666;8.948;2024-03-23T05:28:18;8.60;99.90
20380;DHT22;10349;48.666;8.948;2024-03-23T05:30:53;8.50;99.90
20380;DHT22;10349;48.666;8.948;2024-03-23T05:33:19;8.50;99.90
20380;DHT22;10349;48.666;8.948;2024-03-23T05:35:45;8.40;99.90
20380;DHT22;10349;48.666;8.948;2024-03-23T05:38:13;8.40;99.90
20380;DHT22;10349;48.666;8.948;2024-03-23T05:40:38;8.40;99.90
20380;DHT22;10349;48.666;8.948;2024-03-23T05:43:06;8.40;99.90
20380;DHT22;10349;48.666;8.948;2024-03-23T05:45:32;8.30;99.90
20380;DHT22;10349;48.666;8.948;2024-03-23T05:47:57;8.30;99.90
20380;DHT22;10349;48.666;8.948;2024-03-23T05:50:23;8.30;99.90
20380;DHT22;10349;48.666;8.948;2024-03-23T05:52:49;8.30;99.90
20380;DHT22;10349;48.666;8.948;2024-03-23T05:55:15;8.30;99.90
20380;DHT22;10349;48.666;8.948;2024-03-23T05:57:41;8.30;99.90
20380;DHT22;10349;48.666;8.948;2024-03-23T06:00:07;8.30;99.90
20380;DHT22;10349;48.666;8.948;2024-03-23T06:02:44;8.20;99.90
20380;DHT22;10349;48.666;8.948;2024-03-23T06:05:13;8.20;99.90
20380;DHT22;10349;48.666;8.948;2024-03-23T06:07:38;8.20;99.90
20380;DHT22;10349;48.666;8.948;2024-03-23T06:10:07;8.00;99.90
20380;DHT22;10349;48.666;8.948;2024-03-23T06:12:33;8.00;99.90
20380;DHT22;10349;48.666;8.948;2024-03-23T06:14:59;7.90;99.90
20380;DHT22;10349;48.666;8.948;2024-03-23T06:17:25;7.80;99.90
20380;DHT22;10349;48.666;8.948;2024-03-23T06:19:50;7.80;99.90
20380;DHT22;10349;48.666;8.948;2024-03-23T06:22:16;7.70;99.90
20380;DHT22;10349;48.666;8.948;2024-03-23T06:24:42;7.60;99.90
20380;DHT22;10349;48.666;8.948;2024-03-23T06:27:07;7.60;99.90
20380;DHT22;10349;48.666;8.948;2024-03-23T06:29:33;7.50;99.90
20380;DHT22;10349;48.666;8.948;2024-03-23T06:31:58;7.50;99.90
20380;DHT22;10349;48.666;8.948;2024-03-23T06:34:24;7.50;99.90
20380;DHT22;10349;48.666;8.948;2024-03-23T06:36:50;7.40;99.90
20380;DHT22;10349;48.666;8.948;2024-03-23T06:39:16;7.40;99.90
20380;DHT22;10349;48.666;8.948;2024-03-23T06:41:42;7.40;99.90
20380;DHT22;10349;48.666;8.948;2024-03-23T06:44:08;7.40;99.90
20380;DHT22;10349;48.666;8.948;2024-03-23T06:46:34;7.40;99.90
20380;DHT22;10349;48.666;8.948;2024-03-23T06:48:59;7.40;99.90
20380;DHT22;10349;48.666;8.948;2024-03-23T06:51:25;7.30;99.90
20380;DHT22;10349;48.666;8.948;2024-03-23T06:53:50;7.30;99.90
20380;DHT22;10349;48.666;8.948;2024-03-23T06:56:16;7.30;99.90
20380;DHT22;10349;48.666;8.948;2024-03-23T06:58:42;7.30;99.90
20380;DHT22;10349;48.666;8.948;2024-03-23T07:01:07;7.30;99.90
20380;DHT22;10349;48.666;8.948;2024-03-23T07:03:33;7.30;99.90
20380;DHT22;10349;48.666;8.948;2024-03-23T07:05:58;7.30;99.90
20380;DHT22;10349;48.666;8.948;2024-03-23T07:08:24;7.30;99.90
20380;DHT22;10349;48.666;8.948;2024-03-23T07:10:50;7.30;99.90
20380;DHT22;10349;48.666;8.948;2024-03-23T07:13:15;7.30;99.90
20380;DHT22;10349;48.666;8.948;2024-03-23T07:15:42;7.40;99.90
20380;DHT22;10349;48.666;8.948;2024-03-23T07:18:08;7.40;99.90
20380;DHT22;10349;48.666;8.948;2024-03-23T07:20:34;7.40;99.90
20380;DHT22;10349;48.666;8.948;2024-03-23T07:22:59;7.30;99.90
20380;DHT22;10349;48.666;8.948;2024-03-23T07:25:25;7.30;99.90
20380;DHT22;10349;48.666;8.948;2024-03-23T07:27:55;7.30;99.90
20380;DHT22;10349;48.666;8.948;2024-03-23T07:30:21;7.30;99.90
20380;DHT22;10349;48.666;8.948;2024-03-23T07:32:46;7.30;99.90
20380;DHT22;10349;48.666;8.948;2024-03-23T07:35:12;7.20;99.90
20380;DHT22;10349;48.666;8.948;2024-03-23T07:37:38;7.20;99.90
20380;DHT22;10349;48.666;8.948;2024-03-23T07:40:04;7.20;99.90
20380;DHT22;10349;48.666;8.948;2024-03-23T07:42:30;7.10;99.90
20380;DHT22;10349;48.666;8.948;2024-03-23T07:44:56;7.10;99.90
20380;DHT22;10349;48.666;8.948;2024-03-23T07:47:22;7.10;99.90
20380;DHT22;10349;48.666;8.948;2024-03-23T07:49:48;7.10;99.90
20380;DHT22;10349;48.666;8.948;2024-03-23T07:52:14;7.10;99.90
20380;DHT22;10349;48.666;8.948;2024-03-23T07:54:39;7.10;99.90
20380;DHT22;10349;48.666;8.948;2024-03-23T07:57:05;7.10;99.90
20380;DHT22;10349;48.666;8.948;2024-03-23T07:59:32;7.10;99.90
20380;DHT22;10349;48.666;8.948;2024-03-23T08:01:59;7.10;99.90
20380;DHT22;10349;48.666;8.948;2024-03-23T08:04:26;7.10;99.90
20380;DHT22;10349;48.666;8.948;2024-03-23T08:06:52;7.10;99.90
20380;DHT22;10349;48.666;8.948;2024-03-23T08:09:17;7.10;99.90
20380;DHT22;10349;48.666;8.948;2024-03-23T08:11:44;7.00;99.90
20380;DHT22;10349;48.666;8.948;2024-03-23T08:14:11;7.00;99.90
20380;DHT22;10349;48.666;8.948;2024-03-23T08:16:37;7.00;99.90
20380;DHT22;10349;48.666;8.948;2024-03-23T08:19:02;7.00;99.90
20380;DHT22;10349;48.666;8.948;2024-03-23T08:21:29;7.00;99.90
20380;DHT22;10349;48.666;8.948;2024-03-23T08:23:55;7.00;99.90
20380;DHT22;10349;48.666;8.948;2024-03-23T08:26:20;7.00;99.90
20380;DHT22;10349;48.666;8.948;2024-03-23T08:28:46;7.10;99.90
20380;DHT22;10349;48.666;8.948;2024-03-23T08:31:13;7.20;99.90
20380;DHT22;10349;48.666;8.948;2024-03-23T08:33:42;7.20;99.90
20380;DHT22;10349;48.666;8.948;2024-03-23T08:36:09;7.30;99.90
20380;DHT22;10349;48.666;8.948;2024-03-23T08:38:37;7.20;99.90
20380;DHT22;10349;48.666;8.948;2024-03-23T08:41:07;7.20;99.90
20380;DHT22;10349;48.666;8.948;2024-03-23T08:43:37;7.10;99.90
20380;DHT22;10349;48.666;8.948;2024-03-23T08:46:10;7.10;99.90
20380;DHT22;10349;48.666;8.948;2024-03-23T08:48:40;7.10;99.90
20380;DHT22;10349;48.666;8.948;2024-03-23T08:51:09;7.20;99.90
20380;DHT22;10349;48.666;8.948;2024-03-23T08:53:36;7.20;99.90
20380;DHT22;10349;48.666;8.948;2024-03-23T08:56:03;7.20;99.90
20380;DHT22;10349;48.666;8.948;2024-03-23T08:58:30;7.20;99.90
20380;DHT22;10349;48.666;8.948;2024-03-23T09:00:57;7.20;99.90
20380;DHT22;10349;48.666;8.948;2024-03-23T09:03:23;7.20;99.90
20380;DHT22;10349;48.666;8.948;2024-03-23T09:05:49;7.10;99.90
20380;DHT22;10349;48.666;8.948;2024-03-23T09:08:15;7.00;99.90
20380;DHT22;10349;48.666;8.948;2024-03-23T09:10:41;6.90;99.90
20380;DHT22;10349;48.666;8.948;2024-03-23T09:13:07;6.80;99.90
20380;DHT22;10349;48.666;8.948;2024-03-23T09:15:34;6.90;99.90
20380;DHT22;10349;48.666;8.948;2024-03-23T09:18:00;7.10;99.90
20380;DHT22;10349;48.666;8.948;2024-03-23T09:20:26;7.20;99.90
20380;DHT22;10349;48.666;8.948;2024-03-23T09:22:51;7.20;99.90
20380;DHT22;10349;48.666;8.948;2024-03-23T09:25:17;7.20;99.90
20380;DHT22;10349;48.666;8.948;2024-03-23T09:27:43;7.30;99.90
20380;DHT22;10349;48.666;8.948;2024-03-23T09:30:10;7.40;99.90
20380;DHT22;10349;48.666;8.948;2024-03-23T09:32:36;7.40;99.90
20380;DHT22;10349;48.666;8.948;2024-03-23T09:35:02;7.40;99.90
20380;DHT22;10349;48.666;8.948;2024-03-23T09:37:28;7.40;99.90
20380;DHT22;10349;48.666;8.948;2024-03-23T09:39:53;7.50;99.90
20380;DHT22;10349;48.666;8.948;2024-03-23T09:42:19;7.50;99.90
20380;DHT22;10349;48.666;8.948;2024-03-23T09:44:45;7.50;99.90
20380;DHT22;10349;48.666;8.948;2024-03-23T09:47:10;7.60;99.90
20380;DHT22;10349;48.666;8.948;2024-03-23T09:49:37;7.50;99.90
20380;DHT22;10349;48.666;8.948;2024-03-23T09:52:03;7.60;99.90
20380;DHT22;10349;48.666;8.948;2024-03-23T09:54:30;7.60;99.90
20380;DHT22;10349;48.666;8.948;2024-03-23T09:56:55;7.60;99.90
20380;DHT22;10349;48.666;8.948;2024-03-23T09:59:21;7.70;99.90
20380;DHT22;10349;48.666;8.948;2024-03-23T10:01:47;7.90;99.90
20380;DHT22;10349;48.666;8.948;2024-03-23T10:04:36;8.00;99.90
20380;DHT22;10349;48.666;8.948;2024-03-23T10:07:15;8.10;99.90
20380;DHT22;10349;48.666;8.948;2024-03-23T10:09:42;8.10;99.90
20380;DHT22;10349;48.666;8.948;2024-03-23T10:12:12;8.20;99.90
20380;DHT22;10349;48.666;8.948;2024-03-23T10:14:42;8.20;99.90
20380;DHT22;10349;48.666;8.948;2024-03-23T10:17:21;8.20;99.90
20380;DHT22;10349;48.666;8.948;2024-03-23T10:19:51;8.20;99.90
20380;DHT22;10349;48.666;8.948;2024-03-23T10:22:21;8.20;99.90
20380;DHT22;10349;48.666;8.948;2024-03-23T10:24:49;8.20;99.90
20380;DHT22;10349;48.666;8.948;2024-03-23T10:27:19;8.20;99.90
20380;DHT22;10349;48.666;8.948;2024-03-23T10:29:49;8.20;99.90
20380;DHT22;10349;48.666;8.948;2024-03-23T10:32:16;8.30;99.90
20380;DHT22;10349;48.666;8.948;2024-03-23T10:34:42;8.30;99.90
20380;DHT22;10349;48.666;8.948;2024-03-23T10:37:08;8.40;99.90
20380;DHT22;10349;48.666;8.948;2024-03-23T10:39:35;8.40;99.90
20380;DHT22;10349;48.666;8.948;2024-03-23T10:42:09;8.10;99.90
20380;DHT22;10349;48.666;8.948;2024-03-23T10:44:38;7.20;99.90
20380;DHT22;10349;48.666;8.948;2024-03-23T10:47:04;6.50;99.90
20380;DHT22;10349;48.666;8.948;2024-03-23T10:49:32;6.00;99.90
20380;DHT22;10349;48.666;8.948;2024-03-23T10:51:58;5.60;99.90
20380;DHT22;10349;48.666;8.948;2024-03-23T10:54:25;5.20;99.90
20380;DHT22;10349;48.666;8.948;2024-03-23T10:56:57;5.00;99.90
20380;DHT22;10349;48.666;8.948;2024-03-23T10:59:25;4.90;99.90
20380;DHT22;10349;48.666;8.948;2024-03-23T11:01:58;5.00;99.90
20380;DHT22;10349;48.666;8.948;2024-03-23T11:04:37;5.00;99.90
20380;DHT22;10349;48.666;8.948;2024-03-23T11:09:56;5.20;99.90
20380;DHT22;10349;48.666;8.948;2024-03-23T11:15:05;5.40;99.90
20380;DHT22;10349;48.666;8.948;2024-03-23T11:17:32;5.50;99.90
20380;DHT22;10349;48.666;8.948;2024-03-23T11:19:59;5.70;99.90
20380;DHT22;10349;48.666;8.948;2024-03-23T11:22:44;5.80;99.90
20380;DHT22;10349;48.666;8.948;2024-03-23T11:25:23;5.90;99.90
20380;DHT22;10349;48.666;8.948;2024-03-23T11:27:51;6.10;99.90
20380;DHT22;10349;48.666;8.948;2024-03-23T11:32:45;6.40;99.90
20380;DHT22;10349;48.666;8.948;2024-03-23T11:35:24;6.40;99.90
20380;DHT22;10349;48.666;8.948;2024-03-23T11:38:19;6.50;99.90
20380;DHT22;10349;48.666;8.948;2024-03-23T11:40:49;6.50;99.90
20380;DHT22;10349;48.666;8.948;2024-03-23T11:43:16;6.50;99.90
20380;DHT22;10349;48.666;8.948;2024-03-23T11:45:43;6.60;99.90
20380;DHT22;10349;48.666;8.948;2024-03-23T11:48:11;6.60;99.90
20380;DHT22;10349;48.666;8.948;2024-03-23T11:50:40;6.60;99.90
20380;DHT22;10349;48.666;8.948;2024-03-23T11:53:09;6.70;99.90
20380;DHT22;10349;48.666;8.948;2024-03-23T11:55:49;6.80;99.90
20380;DHT22;10349;48.666;8.948;2024-03-23T11:58:17;6.80;99.90
20380;DHT22;10349;48.666;8.948;2024-03-23T12:00:49;7.00;99.90
20380;DHT22;10349;48.666;8.948;2024-03-23T12:03:16;7.00;99.90
20380;DHT22;10349;48.666;8.948;2024-03-23T12:05:42;7.20;99.90
20380;DHT22;10349;48.666;8.948;2024-03-23T12:08:20;7.40;99.90
20380;DHT22;10349;48.666;8.948;2024-03-23T12:11:15;7.50;99.90
20380;DHT22;10349;48.666;8.948;2024-03-23T12:13:41;7.60;99.90
20380;DHT22;10349;48.666;8.948;2024-03-23T12:16:19;7.60;99.90
20380;DHT22;10349;48.666;8.948;2024-03-23T12:18:47;7.50;99.90
20380;DHT22;10349;48.666;8.948;2024-03-23T12:21:14;7.50;99.90
20380;DHT22;10349;48.666;8.948;2024-03-23T12:23:40;7.60;99.90
20380;DHT22;10349;48.666;8.948;2024-03-23T12:26:07;7.60;99.90
20380;DHT22;10349;48.666;8.948;2024-03-23T12:28:33;7.50;99.90
20380;DHT22;10349;48.666;8.948;2024-03-23T12:30:58;7.50;99.90
20380;DHT22;10349;48.666;8.948;2024-03-23T12:33:24;7.50;99.90
20380;DHT22;10349;48.666;8.948;2024-03-23T12:35:50;7.50;99.90
20380;DHT22;10349;48.666;8.948;2024-03-23T12:38:16;7.60;99.90
20380;DHT22;10349;48.666;8.948;2024-03-23T12:40:46;7.60;99.90
20380;DHT22;10349;48.666;8.948;2024-03-23T12:43:13;7.60;99.90
20380;DHT22;10349;48.666;8.948;2024-03-23T12:45:38;7.60;99.90
20380;DHT22;10349;48.666;8.948;2024-03-23T12:48:04;7.50;99.90
20380;DHT22;10349;48.666;8.948;2024-03-23T12:50:30;7.60;99.90
20380;DHT22;10349;48.666;8.948;2024-03-23T12:52:55;7.60;99.90
20380;DHT22;10349;48.666;8.948;2024-03-23T12:55:21;7.70;99.90
20380;DHT22;10349;48.666;8.948;2024-03-23T12:57:47;7.80;99.90
20380;DHT22;10349;48.666;8.948;2024-03-23T13:00:13;7.80;99.90
20380;DHT22;10349;48.666;8.948;2024-03-23T13:02:41;7.90;99.90
20380;DHT22;10349;48.666;8.948;2024-03-23T13:05:07;7.80;99.90
20380;DHT22;10349;48.666;8.948;2024-03-23T13:07:34;7.80;99.90
20380;DHT22;10349;48.666;8.948;2024-03-23T13:10:01;7.50;99.90
20380;DHT22;10349;48.666;8.948;2024-03-23T13:12:27;7.30;99.90
20380;DHT22;10349;48.666;8.948;2024-03-23T13:14:53;7.00;99.90
20380;DHT22;10349;48.666;8.948;2024-03-23T13:17:19;6.60;99.90
20380;DHT22;10349;48.666;8.948;2024-03-23T13:19:44;6.30;99.90
20380;DHT22;10349;48.666;8.948;2024-03-23T13:22:10;5.90;99.90
20380;DHT22;10349;48.666;8.948;2024-03-23T13:24:37;5.70;99.90
20380;DHT22;10349;48.666;8.948;2024-03-23T13:27:03;5.90;99.90
20380;DHT22;10349;48.666;8.948;2024-03-23T13:29:31;6.10;99.90
20380;DHT22;10349;48.666;8.948;2024-03-23T13:31:56;6.30;99.90
20380;DHT22;10349;48.666;8.948;2024-03-23T13:34:22;6.60;99.90
20380;DHT22;10349;48.666;8.948;2024-03-23T13:36:47;6.80;99.90
20380;DHT22;10349;48.666;8.948;2024-03-23T13:39:14;7.00;99.90
20380;DHT22;10349;48.666;8.948;2024-03-23T13:41:42;7.20;99.90
20380;DHT22;10349;48.666;8.948;2024-03-23T13:44:09;7.40;99.90
20380;DHT22;10349;48.666;8.948;2024-03-23T13:46:39;7.50;99.90
20380;DHT22;10349;48.666;8.948;2024-03-23T13:49:10;7.60;99.90
20380;DHT22;10349;48.666;8.948;2024-03-23T13:51:38;7.80;99.90
20380;DHT22;10349;48.666;8.948;2024-03-23T13:54:03;8.00;99.90
20380;DHT22;10349;48.666;8.948;2024-03-23T13:56:29;8.20;99.90
20380;DHT22;10349;48.666;8.948;2024-03-23T13:58:55;8.20;99.90
20380;DHT22;10349;48.666;8.948;2024-03-23T14:01:21;8.20;99.90
20380;DHT22;10349;48.666;8.948;2024-03-23T14:03:47;8.10;99.90
20380;DHT22;10349;48.666;8.948;2024-03-23T14:06:13;7.80;99.90
20380;DHT22;10349;48.666;8.948;2024-03-23T14:08:38;7.50;99.90
20380;DHT22;10349;48.666;8.948;2024-03-23T14:11:14;7.50;99.90
20380;DHT22;10349;48.666;8.948;2024-03-23T14:13:39;7.50;99.90
20380;DHT22;10349;48.666;8.948;2024-03-23T14:16:06;7.60;99.90
20380;DHT22;10349;48.666;8.948;2024-03-23T14:18:31;7.60;99.90
20380;DHT22;10349;48.666;8.948;2024-03-23T14:20:59;7.70;99.90
20380;DHT22;10349;48.666;8.948;2024-03-23T14:23:30;7.80;99.90
20380;DHT22;10349;48.666;8.948;2024-03-23T14:25:58;7.90;99.90
20380;DHT22;10349;48.666;8.948;2024-03-23T14:28:24;7.90;99.90
20380;DHT22;10349;48.666;8.948;2024-03-23T14:30:50;7.60;99.90
20380;DHT22;10349;48.666;8.948;2024-03-23T14:33:17;7.30;99.90
20380;DHT22;10349;48.666;8.948;2024-03-23T14:35:43;7.20;99.90
20380;DHT22;10349;48.666;8.948;2024-03-23T14:38:16;7.00;99.90
20380;DHT22;10349;48.666;8.948;2024-03-23T14:40:42;6.90;99.90
20380;DHT22;10349;48.666;8.948;2024-03-23T14:43:07;6.70;99.90
20380;DHT22;10349;48.666;8.948;2024-03-23T14:45:33;6.70;99.90
20380;DHT22;10349;48.666;8.948;2024-03-23T14:47:59;6.60;99.90
20380;DHT22;10349;48.666;8.948;2024-03-23T14:50:26;6.60;99.90
20380;DHT22;10349;48.666;8.948;2024-03-23T14:52:51;6.50;99.90
20380;DHT22;10349;48.666;8.948;2024-03-23T14:55:17;6.50;99.90
20380;DHT22;10349;48.666;8.948;2024-03-23T14:57:43;6.30;99.90
20380;DHT22;10349;48.666;8.948;2024-03-23T15:00:09;6.10;99.90
20380;DHT22;10349;48.666;8.948;2024-03-23T15:02:38;5.90;99.90
20380;DHT22;10349;48.666;8.948;2024-03-23T15:05:05;5.80;99.90
20380;DHT22;10349;48.666;8.948;2024-03-23T15:07:33;5.90;99.90
20380;DHT22;10349;48.666;8.948;2024-03-23T15:09:58;5.90;99.90
20380;DHT22;10349;48.666;8.948;2024-03-23T15:12:24;6.00;99.90
20380;DHT22;10349;48.666;8.948;2024-03-23T15:14:50;6.10;99.90
20380;DHT22;10349;48.666;8.948;2024-03-23T15:17:15;6.20;99.90
20380;DHT22;10349;48.666;8.948;2024-03-23T15:19:41;6.30;99.90
20380;DHT22;10349;48.666;8.948;2024-03-23T15:22:11;6.30;99.90
20380;DHT22;10349;48.666;8.948;2024-03-23T15:24:36;6.40;99.90
20380;DHT22;10349;48.666;8.948;2024-03-23T15:27:03;6.40;99.90
20380;DHT22;10349;48.666;8.948;2024-03-23T15:29:29;6.50;99.90
20380;DHT22;10349;48.666;8.948;2024-03-23T15:31:55;6.60;99.90
20380;DHT22;10349;48.666;8.948;2024-03-23T15:34:21;6.50;99.90
20380;DHT22;10349;48.666;8.948;2024-03-23T15:36:49;6.50;99.90
20380;DHT22;10349;48.666;8.948;2024-03-23T15:39:18;6.40;99.90
20380;DHT22;10349;48.666;8.948;2024-03-23T15:41:45;6.40;99.90
20380;DHT22;10349;48.666;8.948;2024-03-23T15:44:11;6.40;99.90
20380;DHT22;10349;48.666;8.948;2024-03-23T15:46:37;6.40;99.90
20380;DHT22;10349;48.666;8.948;2024-03-23T15:49:02;6.40;99.90
20380;DHT22;10349;48.666;8.948;2024-03-23T15:51:28;6.40;99.90
20380;DHT22;10349;48.666;8.948;2024-03-23T15:54:01;6.30;99.90
20380;DHT22;10349;48.666;8.948;2024-03-23T15:56:29;6.20;99.90
20380;DHT22;10349;48.666;8.948;2024-03-23T15:58:55;6.00;99.90
20380;DHT22;10349;48.666;8.948;2024-03-23T16:01:20;6.00;99.90
20380;DHT22;10349;48.666;8.948;2024-03-23T16:03:47;6.00;99.90
20380;DHT22;10349;48.666;8.948;2024-03-23T16:06:13;5.90;99.90
20380;DHT22;10349;48.666;8.948;2024-03-23T16:08:38;5.80;99.90
20380;DHT22;10349;48.666;8.948;2024-03-23T16:11:05;5.80;99.90
20380;DHT22;10349;48.666;8.948;2024-03-23T16:13:32;5.70;99.90
20380;DHT22;10349;48.666;8.948;2024-03-23T16:15:59;5.70;99.90
20380;DHT22;10349;48.666;8.948;2024-03-23T16:18:25;5.80;99.90
20380;DHT22;10349;48.666;8.948;2024-03-23T16:20:59;5.70;99.90
20380;DHT22;10349;48.666;8.948;2024-03-23T16:23:26;5.70;99.90
20380;DHT22;10349;48.666;8.948;2024-03-23T16:25:55;5.80;99.90
20380;DHT22;10349;48.666;8.948;2024-03-23T16:28:35;5.90;99.90
20380;DHT22;10349;48.666;8.948;2024-03-23T16:31:02;5.90;99.90
20380;DHT22;10349;48.666;8.948;2024-03-23T16:33:29;5.90;99.90
20380;DHT22;10349;48.666;8.948;2024-03-23T16:38:30;5.90;99.90
20380;DHT22;10349;48.666;8.948;2024-03-23T16:41:05;5.90;99.90
20380;DHT22;10349;48.666;8.948;2024-03-23T16:43:32;6.00;99.90
20380;DHT22;10349;48.666;8.948;2024-03-23T16:46:09;6.00;99.90